sensor_id;sensor_type;location;lat;lon;timestamp;P1;durP1;ratioP1;P2;durP2;ratioP2
6348;SDS011;3207;42.648;23.406;2023-04-24T00:01:25;4.32;;;3.85;;
6348;SDS011;3207;42.648;23.406;2023-04-24T00:03:51;6.05;;;4.13;;
6348;SDS011;3207;42.648;23.406;2023-04-24T00:06:18;5.03;;;4.05;;
6348;SDS011;3207;42.648;23.406;2023-04-24T00:08:45;4.88;;;4.35;;
6348;SDS011;3207;42.648;23.406;2023-04-24T00:11:12;5.35;;;4.30;;
6348;SDS011;3207;42.648;23.406;2023-04-24T00:13:40;5.70;;;4.03;;
6348;SDS011;3207;42.648;23.406;2023-04-24T00:16:07;4.03;;;3.65;;
6348;SDS011;3207;42.648;23.406;2023-04-24T00:18:34;4.50;;;3.45;;
6348;SDS011;3207;42.648;23.406;2023-04-24T00:21:01;6.22;;;3.33;;
6348;SDS011;3207;42.648;23.406;2023-04-24T00:23:28;3.85;;;3.55;;
6348;SDS011;3207;42.648;23.406;2023-04-24T00:25:54;4.03;;;3.60;;
6348;SDS011;3207;42.648;23.406;2023-04-24T00:28:21;3.92;;;3.63;;
6348;SDS011;3207;42.648;23.406;2023-04-24T00:30:49;4.68;;;4.18;;
6348;SDS011;3207;42.648;23.406;2023-04-24T00:33:16;5.20;;;3.72;;
6348;SDS011;3207;42.648;23.406;2023-04-24T00:35:43;3.92;;;3.58;;
6348;SDS011;3207;42.648;23.406;2023-04-24T00:38:09;3.67;;;3.38;;
6348;SDS011;3207;42.648;23.406;2023-04-24T00:40:36;3.80;;;3.50;;
6348;SDS011;3207;42.648;23.406;2023-04-24T00:43:03;4.32;;;3.92;;
6348;SDS011;3207;42.648;23.406;2023-04-24T00:45:30;4.88;;;3.85;;
6348;SDS011;3207;42.648;23.406;2023-04-24T00:47:58;4.07;;;3.58;;
6348;SDS011;3207;42.648;23.406;2023-04-24T00:50:26;4.57;;;4.18;;
6348;SDS011;3207;42.648;23.406;2023-04-24T00:52:54;4.25;;;3.85;;
6348;SDS011;3207;42.648;23.406;2023-04-24T00:55:21;4.90;;;4.32;;
6348;SDS011;3207;42.648;23.406;2023-04-24T00:57:48;4.43;;;3.90;;
6348;SDS011;3207;42.648;23.406;2023-04-24T01:00:15;4.18;;;3.88;;
6348;SDS011;3207;42.648;23.406;2023-04-24T01:02:43;4.65;;;4.10;;
6348;SDS011;3207;42.648;23.406;2023-04-24T01:05:12;4.00;;;3.70;;
6348;SDS011;3207;42.648;23.406;2023-04-24T01:07:40;5.13;;;3.97;;
6348;SDS011;3207;42.648;23.406;2023-04-24T01:10:10;5.20;;;4.70;;
6348;SDS011;3207;42.648;23.406;2023-04-24T01:12:37;6.63;;;4.70;;
6348;SDS011;3207;42.648;23.406;2023-04-24T01:15:05;6.78;;;4.85;;
6348;SDS011;3207;42.648;23.406;2023-04-24T01:17:33;3.80;;;3.50;;
6348;SDS011;3207;42.648;23.406;2023-04-24T01:20:00;5.15;;;4.22;;
6348;SDS011;3207;42.648;23.406;2023-04-24T01:22:32;4.50;;;3.63;;
6348;SDS011;3207;42.648;23.406;2023-04-24T01:25:00;8.15;;;4.38;;
6348;SDS011;3207;42.648;23.406;2023-04-24T01:27:27;4.70;;;4.30;;
6348;SDS011;3207;42.648;23.406;2023-04-24T01:29:54;4.25;;;3.83;;
6348;SDS011;3207;42.648;23.406;2023-04-24T01:32:21;4.82;;;4.32;;
6348;SDS011;3207;42.648;23.406;2023-04-24T01:34:48;4.47;;;4.07;;
6348;SDS011;3207;42.648;23.406;2023-04-24T01:37:16;4.53;;;4.07;;
6348;SDS011;3207;42.648;23.406;2023-04-24T01:39:44;4.40;;;4.00;;
6348;SDS011;3207;42.648;23.406;2023-04-24T01:42:11;4.57;;;4.18;;
6348;SDS011;3207;42.648;23.406;2023-04-24T01:44:39;4.35;;;3.95;;
6348;SDS011;3207;42.648;23.406;2023-04-24T01:47:07;5.07;;;4.63;;
6348;SDS011;3207;42.648;23.406;2023-04-24T01:49:34;5.82;;;4.65;;
6348;SDS011;3207;42.648;23.406;2023-04-24T01:52:01;4.63;;;4.15;;
6348;SDS011;3207;42.648;23.406;2023-04-24T01:54:27;11.20;;;5.07;;
6348;SDS011;3207;42.648;23.406;2023-04-24T01:56:55;7.38;;;4.63;;
6348;SDS011;3207;42.648;23.406;2023-04-24T01:59:22;4.78;;;4.22;;
6348;SDS011;3207;42.648;23.406;2023-04-24T02:01:51;5.07;;;4.55;;
6348;SDS011;3207;42.648;23.406;2023-04-24T02:04:18;5.95;;;5.43;;
6348;SDS011;3207;42.648;23.406;2023-04-24T02:06:45;6.25;;;5.40;;
6348;SDS011;3207;42.648;23.406;2023-04-24T02:09:12;5.35;;;4.80;;
6348;SDS011;3207;42.648;23.406;2023-04-24T02:11:44;5.10;;;4.60;;
6348;SDS011;3207;42.648;23.406;2023-04-24T02:14:12;5.10;;;4.45;;
6348;SDS011;3207;42.648;23.406;2023-04-24T02:16:39;6.30;;;4.25;;
6348;SDS011;3207;42.648;23.406;2023-04-24T02:19:07;6.18;;;4.47;;
6348;SDS011;3207;42.648;23.406;2023-04-24T02:21:34;5.15;;;4.65;;
6348;SDS011;3207;42.648;23.406;2023-04-24T02:24:01;5.00;;;4.55;;
6348;SDS011;3207;42.648;23.406;2023-04-24T02:26:28;5.35;;;4.85;;
6348;SDS011;3207;42.648;23.406;2023-04-24T02:28:56;5.18;;;4.68;;
6348;SDS011;3207;42.648;23.406;2023-04-24T02:31:24;5.82;;;5.32;;
6348;SDS011;3207;42.648;23.406;2023-04-24T02:33:51;5.80;;;5.03;;
6348;SDS011;3207;42.648;23.406;2023-04-24T02:36:18;5.20;;;4.80;;
6348;SDS011;3207;42.648;23.406;2023-04-24T02:38:45;5.55;;;4.75;;
6348;SDS011;3207;42.648;23.406;2023-04-24T02:41:12;4.45;;;4.10;;
6348;SDS011;3207;42.648;23.406;2023-04-24T02:43:38;4.22;;;3.80;;
6348;SDS011;3207;42.648;23.406;2023-04-24T02:46:05;4.45;;;3.75;;
6348;SDS011;3207;42.648;23.406;2023-04-24T02:48:33;3.80;;;3.42;;
6348;SDS011;3207;42.648;23.406;2023-04-24T02:51:00;3.63;;;3.33;;
6348;SDS011;3207;42.648;23.406;2023-04-24T02:53:27;3.80;;;3.50;;
6348;SDS011;3207;42.648;23.406;2023-04-24T02:55:55;4.28;;;3.80;;
6348;SDS011;3207;42.648;23.406;2023-04-24T02:58:21;3.90;;;3.60;;
6348;SDS011;3207;42.648;23.406;2023-04-24T03:00:48;6.40;;;3.65;;
6348;SDS011;3207;42.648;23.406;2023-04-24T03:03:15;4.20;;;3.80;;
6348;SDS011;3207;42.648;23.406;2023-04-24T03:05:43;4.22;;;3.92;;
6348;SDS011;3207;42.648;23.406;2023-04-24T03:08:10;5.90;;;3.78;;
6348;SDS011;3207;42.648;23.406;2023-04-24T03:10:37;4.60;;;3.67;;
6348;SDS011;3207;42.648;23.406;2023-04-24T03:13:04;3.67;;;3.35;;
6348;SDS011;3207;42.648;23.406;2023-04-24T03:15:31;4.47;;;4.13;;
6348;SDS011;3207;42.648;23.406;2023-04-24T03:17:58;4.35;;;3.95;;
6348;SDS011;3207;42.648;23.406;2023-04-24T03:20:28;9.88;;;4.53;;
6348;SDS011;3207;42.648;23.406;2023-04-24T03:22:57;5.38;;;4.38;;
6348;SDS011;3207;42.648;23.406;2023-04-24T03:25:23;5.20;;;3.92;;
6348;SDS011;3207;42.648;23.406;2023-04-24T03:27:50;4.70;;;3.90;;
6348;SDS011;3207;42.648;23.406;2023-04-24T03:30:19;3.92;;;3.63;;
6348;SDS011;3207;42.648;23.406;2023-04-24T03:32:46;5.32;;;4.32;;
6348;SDS011;3207;42.648;23.406;2023-04-24T03:35:13;7.93;;;3.60;;
6348;SDS011;3207;42.648;23.406;2023-04-24T03:37:39;4.32;;;3.92;;
6348;SDS011;3207;42.648;23.406;2023-04-24T03:40:08;4.20;;;3.83;;
6348;SDS011;3207;42.648;23.406;2023-04-24T03:42:36;6.22;;;4.75;;
6348;SDS011;3207;42.648;23.406;2023-04-24T03:45:03;5.85;;;3.85;;
6348;SDS011;3207;42.648;23.406;2023-04-24T03:47:30;4.35;;;3.95;;
6348;SDS011;3207;42.648;23.406;2023-04-24T03:49:57;5.18;;;4.47;;
6348;SDS011;3207;42.648;23.406;2023-04-24T03:52:24;5.00;;;4.22;;
6348;SDS011;3207;42.648;23.406;2023-04-24T03:54:50;4.78;;;4.38;;
6348;SDS011;3207;42.648;23.406;2023-04-24T03:57:19;6.93;;;4.10;;
6348;SDS011;3207;42.648;23.406;2023-04-24T03:59:53;4.63;;;4.22;;
6348;SDS011;3207;42.648;23.406;2023-04-24T04:02:20;4.65;;;3.88;;
6348;SDS011;3207;42.648;23.406;2023-04-24T04:04:48;5.13;;;4.10;;
6348;SDS011;3207;42.648;23.406;2023-04-24T04:07:15;6.13;;;4.53;;
6348;SDS011;3207;42.648;23.406;2023-04-24T04:09:42;8.30;;;4.32;;
6348;SDS011;3207;42.648;23.406;2023-04-24T04:12:09;7.22;;;4.78;;
6348;SDS011;3207;42.648;23.406;2023-04-24T04:14:39;5.38;;;4.88;;
6348;SDS011;3207;42.648;23.406;2023-04-24T04:17:05;6.28;;;5.22;;
6348;SDS011;3207;42.648;23.406;2023-04-24T04:19:32;9.13;;;5.15;;
6348;SDS011;3207;42.648;23.406;2023-04-24T04:22:00;7.32;;;4.72;;
6348;SDS011;3207;42.648;23.406;2023-04-24T04:24:26;5.50;;;4.18;;
6348;SDS011;3207;42.648;23.406;2023-04-24T04:26:53;12.30;;;4.53;;
6348;SDS011;3207;42.648;23.406;2023-04-24T04:29:21;6.80;;;4.50;;
6348;SDS011;3207;42.648;23.406;2023-04-24T04:31:50;7.93;;;4.63;;
6348;SDS011;3207;42.648;23.406;2023-04-24T04:34:17;10.32;;;5.32;;
6348;SDS011;3207;42.648;23.406;2023-04-24T04:36:44;5.00;;;4.60;;
6348;SDS011;3207;42.648;23.406;2023-04-24T04:39:11;6.97;;;5.05;;
6348;SDS011;3207;42.648;23.406;2023-04-24T04:41:39;5.00;;;4.60;;
6348;SDS011;3207;42.648;23.406;2023-04-24T04:44:06;6.72;;;4.78;;
6348;SDS011;3207;42.648;23.406;2023-04-24T04:46:33;5.55;;;4.32;;
6348;SDS011;3207;42.648;23.406;2023-04-24T04:49:03;6.18;;;4.43;;
6348;SDS011;3207;42.648;23.406;2023-04-24T04:51:31;5.75;;;4.93;;
6348;SDS011;3207;42.648;23.406;2023-04-24T04:53:58;8.18;;;5.20;;
6348;SDS011;3207;42.648;23.406;2023-04-24T04:56:24;7.28;;;5.97;;
6348;SDS011;3207;42.648;23.406;2023-04-24T04:58:51;8.10;;;5.63;;
6348;SDS011;3207;42.648;23.406;2023-04-24T05:01:18;8.30;;;5.70;;
6348;SDS011;3207;42.648;23.406;2023-04-24T05:03:45;5.75;;;5.25;;
6348;SDS011;3207;42.648;23.406;2023-04-24T05:06:13;5.65;;;5.15;;
6348;SDS011;3207;42.648;23.406;2023-04-24T05:08:40;5.82;;;4.80;;
6348;SDS011;3207;42.648;23.406;2023-04-24T05:11:07;6.40;;;4.30;;
6348;SDS011;3207;42.648;23.406;2023-04-24T05:13:34;10.85;;;4.93;;
6348;SDS011;3207;42.648;23.406;2023-04-24T05:16:00;4.25;;;3.85;;
6348;SDS011;3207;42.648;23.406;2023-04-24T05:18:27;6.32;;;4.13;;
6348;SDS011;3207;42.648;23.406;2023-04-24T05:20:54;4.43;;;4.00;;
6348;SDS011;3207;42.648;23.406;2023-04-24T05:23:23;9.13;;;4.40;;
6348;SDS011;3207;42.648;23.406;2023-04-24T05:25:50;4.28;;;3.92;;
6348;SDS011;3207;42.648;23.406;2023-04-24T05:28:17;5.15;;;4.40;;
6348;SDS011;3207;42.648;23.406;2023-04-24T05:30:44;5.00;;;4.60;;
6348;SDS011;3207;42.648;23.406;2023-04-24T05:33:10;7.65;;;5.53;;
6348;SDS011;3207;42.648;23.406;2023-04-24T05:35:39;5.38;;;4.88;;
6348;SDS011;3207;42.648;23.406;2023-04-24T05:38:10;5.05;;;4.65;;
6348;SDS011;3207;42.648;23.406;2023-04-24T05:40:39;7.35;;;4.95;;
6348;SDS011;3207;42.648;23.406;2023-04-24T05:43:06;5.40;;;4.90;;
6348;SDS011;3207;42.648;23.406;2023-04-24T05:45:32;5.85;;;5.30;;
6348;SDS011;3207;42.648;23.406;2023-04-24T05:48:01;5.90;;;5.40;;
6348;SDS011;3207;42.648;23.406;2023-04-24T05:50:28;5.70;;;5.10;;
6348;SDS011;3207;42.648;23.406;2023-04-24T05:52:54;6.22;;;5.30;;
6348;SDS011;3207;42.648;23.406;2023-04-24T05:55:23;10.18;;;6.38;;
6348;SDS011;3207;42.648;23.406;2023-04-24T05:57:51;10.95;;;5.88;;
6348;SDS011;3207;42.648;23.406;2023-04-24T06:00:19;8.30;;;5.38;;
6348;SDS011;3207;42.648;23.406;2023-04-24T06:02:46;6.93;;;5.57;;
6348;SDS011;3207;42.648;23.406;2023-04-24T06:05:13;5.80;;;5.13;;
6348;SDS011;3207;42.648;23.406;2023-04-24T06:07:40;5.80;;;4.65;;
6348;SDS011;3207;42.648;23.406;2023-04-24T06:10:08;6.20;;;5.30;;
6348;SDS011;3207;42.648;23.406;2023-04-24T06:12:35;5.32;;;4.82;;
6348;SDS011;3207;42.648;23.406;2023-04-24T06:15:04;6.25;;;5.05;;
6348;SDS011;3207;42.648;23.406;2023-04-24T06:17:35;12.55;;;5.95;;
6348;SDS011;3207;42.648;23.406;2023-04-24T06:20:02;12.15;;;6.03;;
6348;SDS011;3207;42.648;23.406;2023-04-24T06:22:31;7.95;;;5.80;;
6348;SDS011;3207;42.648;23.406;2023-04-24T06:24:58;9.30;;;6.53;;
6348;SDS011;3207;42.648;23.406;2023-04-24T06:27:25;8.50;;;6.20;;
6348;SDS011;3207;42.648;23.406;2023-04-24T06:29:52;9.27;;;7.32;;
6348;SDS011;3207;42.648;23.406;2023-04-24T06:32:22;11.80;;;6.55;;
6348;SDS011;3207;42.648;23.406;2023-04-24T06:34:50;10.77;;;7.70;;
6348;SDS011;3207;42.648;23.406;2023-04-24T06:37:18;9.65;;;7.88;;
6348;SDS011;3207;42.648;23.406;2023-04-24T06:39:44;12.43;;;7.93;;
6348;SDS011;3207;42.648;23.406;2023-04-24T06:42:11;9.45;;;7.60;;
6348;SDS011;3207;42.648;23.406;2023-04-24T06:44:38;10.10;;;8.68;;
6348;SDS011;3207;42.648;23.406;2023-04-24T06:47:17;13.38;;;8.85;;
6348;SDS011;3207;42.648;23.406;2023-04-24T06:49:53;8.95;;;6.93;;
6348;SDS011;3207;42.648;23.406;2023-04-24T06:52:20;9.00;;;6.88;;
6348;SDS011;3207;42.648;23.406;2023-04-24T06:54:47;9.05;;;7.13;;
6348;SDS011;3207;42.648;23.406;2023-04-24T06:57:14;10.48;;;7.53;;
6348;SDS011;3207;42.648;23.406;2023-04-24T06:59:41;7.60;;;6.90;;
6348;SDS011;3207;42.648;23.406;2023-04-24T07:02:08;10.30;;;7.88;;
6348;SDS011;3207;42.648;23.406;2023-04-24T07:04:34;10.98;;;7.82;;
6348;SDS011;3207;42.648;23.406;2023-04-24T07:07:03;9.68;;;6.93;;
6348;SDS011;3207;42.648;23.406;2023-04-24T07:09:31;7.60;;;6.90;;
6348;SDS011;3207;42.648;23.406;2023-04-24T07:12:00;9.80;;;6.85;;
6348;SDS011;3207;42.648;23.406;2023-04-24T07:14:27;9.73;;;7.25;;
6348;SDS011;3207;42.648;23.406;2023-04-24T07:16:53;10.23;;;7.43;;
6348;SDS011;3207;42.648;23.406;2023-04-24T07:19:22;7.10;;;6.25;;
6348;SDS011;3207;42.648;23.406;2023-04-24T07:21:48;8.80;;;7.00;;
6348;SDS011;3207;42.648;23.406;2023-04-24T07:24:17;7.97;;;6.38;;
6348;SDS011;3207;42.648;23.406;2023-04-24T07:26:44;8.13;;;6.38;;
6348;SDS011;3207;42.648;23.406;2023-04-24T07:29:11;6.97;;;6.28;;
6348;SDS011;3207;42.648;23.406;2023-04-24T07:31:39;8.52;;;7.18;;
6348;SDS011;3207;42.648;23.406;2023-04-24T07:34:06;7.43;;;6.63;;
6348;SDS011;3207;42.648;23.406;2023-04-24T07:36:33;11.98;;;7.30;;
6348;SDS011;3207;42.648;23.406;2023-04-24T07:39:00;9.30;;;7.53;;
6348;SDS011;3207;42.648;23.406;2023-04-24T07:41:28;8.05;;;6.80;;
6348;SDS011;3207;42.648;23.406;2023-04-24T07:43:55;7.75;;;6.65;;
6348;SDS011;3207;42.648;23.406;2023-04-24T07:46:22;10.82;;;8.45;;
6348;SDS011;3207;42.648;23.406;2023-04-24T07:48:50;9.50;;;8.50;;
6348;SDS011;3207;42.648;23.406;2023-04-24T07:51:17;9.10;;;8.20;;
6348;SDS011;3207;42.648;23.406;2023-04-24T07:53:43;9.63;;;8.52;;
6348;SDS011;3207;42.648;23.406;2023-04-24T07:56:10;15.35;;;9.73;;
6348;SDS011;3207;42.648;23.406;2023-04-24T07:58:38;16.35;;;9.32;;
6348;SDS011;3207;42.648;23.406;2023-04-24T08:01:06;16.67;;;11.85;;
6348;SDS011;3207;42.648;23.406;2023-04-24T08:03:33;15.98;;;12.65;;
6348;SDS011;3207;42.648;23.406;2023-04-24T08:05:59;18.25;;;10.73;;
6348;SDS011;3207;42.648;23.406;2023-04-24T08:08:26;18.35;;;11.85;;
6348;SDS011;3207;42.648;23.406;2023-04-24T08:10:53;15.40;;;9.68;;
6348;SDS011;3207;42.648;23.406;2023-04-24T08:13:20;11.07;;;8.80;;
6348;SDS011;3207;42.648;23.406;2023-04-24T08:15:48;11.10;;;8.02;;
6348;SDS011;3207;42.648;23.406;2023-04-24T08:18:15;18.52;;;8.05;;
6348;SDS011;3207;42.648;23.406;2023-04-24T08:20:42;7.80;;;6.90;;
6348;SDS011;3207;42.648;23.406;2023-04-24T08:23:10;7.97;;;7.18;;
6348;SDS011;3207;42.648;23.406;2023-04-24T08:25:37;9.38;;;7.28;;
6348;SDS011;3207;42.648;23.406;2023-04-24T08:28:05;9.15;;;7.47;;
6348;SDS011;3207;42.648;23.406;2023-04-24T08:30:32;11.35;;;8.60;;
6348;SDS011;3207;42.648;23.406;2023-04-24T08:33:01;14.57;;;10.48;;
6348;SDS011;3207;42.648;23.406;2023-04-24T08:35:27;16.25;;;11.60;;
6348;SDS011;3207;42.648;23.406;2023-04-24T08:37:54;11.85;;;9.60;;
6348;SDS011;3207;42.648;23.406;2023-04-24T08:40:22;15.75;;;9.52;;
6348;SDS011;3207;42.648;23.406;2023-04-24T08:42:53;14.93;;;9.45;;
6348;SDS011;3207;42.648;23.406;2023-04-24T08:45:21;9.40;;;8.48;;
6348;SDS011;3207;42.648;23.406;2023-04-24T08:47:49;15.80;;;9.40;;
6348;SDS011;3207;42.648;23.406;2023-04-24T08:50:17;13.55;;;8.93;;
6348;SDS011;3207;42.648;23.406;2023-04-24T08:52:44;10.98;;;8.05;;
6348;SDS011;3207;42.648;23.406;2023-04-24T08:55:11;7.78;;;6.32;;
6348;SDS011;3207;42.648;23.406;2023-04-24T08:57:39;8.63;;;7.53;;
6348;SDS011;3207;42.648;23.406;2023-04-24T09:00:07;9.32;;;5.55;;
6348;SDS011;3207;42.648;23.406;2023-04-24T09:02:34;7.25;;;6.18;;
6348;SDS011;3207;42.648;23.406;2023-04-24T09:05:01;6.95;;;6.10;;
6348;SDS011;3207;42.648;23.406;2023-04-24T09:07:30;6.20;;;5.40;;
6348;SDS011;3207;42.648;23.406;2023-04-24T09:10:02;6.85;;;6.05;;
6348;SDS011;3207;42.648;23.406;2023-04-24T09:12:29;15.35;;;7.10;;
6348;SDS011;3207;42.648;23.406;2023-04-24T09:14:56;8.15;;;7.20;;
6348;SDS011;3207;42.648;23.406;2023-04-24T09:17:23;8.65;;;7.63;;
6348;SDS011;3207;42.648;23.406;2023-04-24T09:19:52;9.73;;;6.93;;
6348;SDS011;3207;42.648;23.406;2023-04-24T09:22:19;11.00;;;7.22;;
6348;SDS011;3207;42.648;23.406;2023-04-24T09:24:48;13.27;;;7.70;;
6348;SDS011;3207;42.648;23.406;2023-04-24T09:27:14;11.35;;;7.70;;
6348;SDS011;3207;42.648;23.406;2023-04-24T09:29:53;7.88;;;7.18;;
6348;SDS011;3207;42.648;23.406;2023-04-24T09:32:20;10.75;;;7.47;;
6348;SDS011;3207;42.648;23.406;2023-04-24T09:35:04;8.27;;;6.78;;
6348;SDS011;3207;42.648;23.406;2023-04-24T09:37:34;8.25;;;6.60;;
6348;SDS011;3207;42.648;23.406;2023-04-24T09:40:10;6.68;;;5.97;;
6348;SDS011;3207;42.648;23.406;2023-04-24T09:42:37;8.43;;;5.93;;
6348;SDS011;3207;42.648;23.406;2023-04-24T09:45:08;8.70;;;5.93;;
6348;SDS011;3207;42.648;23.406;2023-04-24T09:47:35;6.97;;;6.05;;
6348;SDS011;3207;42.648;23.406;2023-04-24T09:50:08;5.43;;;4.93;;
6348;SDS011;3207;42.648;23.406;2023-04-24T09:52:37;7.40;;;4.38;;
6348;SDS011;3207;42.648;23.406;2023-04-24T09:55:11;5.20;;;4.30;;
6348;SDS011;3207;42.648;23.406;2023-04-24T09:57:46;6.80;;;5.03;;
6348;SDS011;3207;42.648;23.406;2023-04-24T10:00:17;6.50;;;5.13;;
6348;SDS011;3207;42.648;23.406;2023-04-24T10:02:49;5.93;;;5.43;;
6348;SDS011;3207;42.648;23.406;2023-04-24T10:05:17;5.13;;;4.25;;
6348;SDS011;3207;42.648;23.406;2023-04-24T10:07:44;6.32;;;4.65;;
6348;SDS011;3207;42.648;23.406;2023-04-24T10:10:12;5.70;;;4.95;;
6348;SDS011;3207;42.648;23.406;2023-04-24T10:12:39;5.45;;;4.85;;
6348;SDS011;3207;42.648;23.406;2023-04-24T10:15:07;7.80;;;5.60;;
6348;SDS011;3207;42.648;23.406;2023-04-24T10:17:38;5.97;;;5.32;;
6348;SDS011;3207;42.648;23.406;2023-04-24T10:20:06;9.40;;;5.68;;
6348;SDS011;3207;42.648;23.406;2023-04-24T10:22:34;9.48;;;6.53;;
6348;SDS011;3207;42.648;23.406;2023-04-24T10:25:03;6.25;;;5.20;;
6348;SDS011;3207;42.648;23.406;2023-04-24T10:27:33;6.30;;;4.72;;
6348;SDS011;3207;42.648;23.406;2023-04-24T10:30:02;5.25;;;4.00;;
6348;SDS011;3207;42.648;23.406;2023-04-24T10:32:29;6.25;;;4.85;;
6348;SDS011;3207;42.648;23.406;2023-04-24T10:34:56;5.30;;;3.70;;
6348;SDS011;3207;42.648;23.406;2023-04-24T10:37:23;3.88;;;3.45;;
6348;SDS011;3207;42.648;23.406;2023-04-24T10:39:52;6.03;;;4.10;;
6348;SDS011;3207;42.648;23.406;2023-04-24T10:42:19;4.13;;;3.67;;
6348;SDS011;3207;42.648;23.406;2023-04-24T10:44:52;4.20;;;3.72;;
6348;SDS011;3207;42.648;23.406;2023-04-24T10:47:24;7.30;;;4.20;;
6348;SDS011;3207;42.648;23.406;2023-04-24T10:49:51;5.70;;;4.30;;
6348;SDS011;3207;42.648;23.406;2023-04-24T10:52:18;4.97;;;4.50;;
6348;SDS011;3207;42.648;23.406;2023-04-24T10:54:46;4.93;;;3.92;;
6348;SDS011;3207;42.648;23.406;2023-04-24T10:57:27;5.22;;;3.95;;
6348;SDS011;3207;42.648;23.406;2023-04-24T11:00:16;4.63;;;4.10;;
6348;SDS011;3207;42.648;23.406;2023-04-24T11:02:46;5.10;;;4.57;;
6348;SDS011;3207;42.648;23.406;2023-04-24T11:05:18;6.68;;;4.00;;
6348;SDS011;3207;42.648;23.406;2023-04-24T11:10:45;4.70;;;4.20;;
6348;SDS011;3207;42.648;23.406;2023-04-24T11:13:14;4.85;;;3.60;;
6348;SDS011;3207;42.648;23.406;2023-04-24T11:15:43;10.48;;;4.32;;
6348;SDS011;3207;42.648;23.406;2023-04-24T11:18:13;4.63;;;4.03;;
6348;SDS011;3207;42.648;23.406;2023-04-24T11:20:41;5.97;;;4.78;;
6348;SDS011;3207;42.648;23.406;2023-04-24T11:23:09;6.47;;;4.78;;
6348;SDS011;3207;42.648;23.406;2023-04-24T11:25:39;8.18;;;5.25;;
6348;SDS011;3207;42.648;23.406;2023-04-24T11:28:06;6.88;;;5.18;;
6348;SDS011;3207;42.648;23.406;2023-04-24T11:30:32;5.32;;;4.82;;
6348;SDS011;3207;42.648;23.406;2023-04-24T11:33:07;11.98;;;7.07;;
6348;SDS011;3207;42.648;23.406;2023-04-24T11:35:35;7.40;;;5.93;;
6348;SDS011;3207;42.648;23.406;2023-04-24T11:38:05;9.85;;;5.95;;
6348;SDS011;3207;42.648;23.406;2023-04-24T11:40:33;7.13;;;5.60;;
6348;SDS011;3207;42.648;23.406;2023-04-24T11:43:03;7.28;;;5.00;;
6348;SDS011;3207;42.648;23.406;2023-04-24T11:45:33;6.68;;;4.60;;
6348;SDS011;3207;42.648;23.406;2023-04-24T11:48:00;6.28;;;4.57;;
6348;SDS011;3207;42.648;23.406;2023-04-24T11:50:30;6.43;;;4.57;;
6348;SDS011;3207;42.648;23.406;2023-04-24T11:52:57;5.47;;;4.97;;
6348;SDS011;3207;42.648;23.406;2023-04-24T11:55:26;5.88;;;4.45;;
6348;SDS011;3207;42.648;23.406;2023-04-24T11:57:54;6.05;;;4.82;;
6348;SDS011;3207;42.648;23.406;2023-04-24T12:00:23;12.02;;;5.28;;
6348;SDS011;3207;42.648;23.406;2023-04-24T12:03:02;5.72;;;5.22;;
6348;SDS011;3207;42.648;23.406;2023-04-24T12:05:33;5.68;;;4.97;;
6348;SDS011;3207;42.648;23.406;2023-04-24T12:08:00;6.63;;;5.95;;
6348;SDS011;3207;42.648;23.406;2023-04-24T12:10:28;9.25;;;5.90;;
6348;SDS011;3207;42.648;23.406;2023-04-24T12:12:56;8.43;;;5.88;;
6348;SDS011;3207;42.648;23.406;2023-04-24T12:15:25;9.02;;;5.75;;
6348;SDS011;3207;42.648;23.406;2023-04-24T12:17:53;6.10;;;5.50;;
6348;SDS011;3207;42.648;23.406;2023-04-24T12:20:23;7.72;;;5.45;;
6348;SDS011;3207;42.648;23.406;2023-04-24T12:22:53;6.00;;;5.40;;
6348;SDS011;3207;42.648;23.406;2023-04-24T12:25:22;5.88;;;5.18;;
6348;SDS011;3207;42.648;23.406;2023-04-24T12:27:52;5.70;;;5.18;;
6348;SDS011;3207;42.648;23.406;2023-04-24T12:30:20;5.72;;;4.10;;
6348;SDS011;3207;42.648;23.406;2023-04-24T12:32:52;6.90;;;4.80;;
6348;SDS011;3207;42.648;23.406;2023-04-24T12:35:20;5.00;;;4.53;;
6348;SDS011;3207;42.648;23.406;2023-04-24T12:37:48;6.35;;;4.93;;
6348;SDS011;3207;42.648;23.406;2023-04-24T12:40:17;6.20;;;4.38;;
6348;SDS011;3207;42.648;23.406;2023-04-24T12:42:45;6.55;;;4.35;;
6348;SDS011;3207;42.648;23.406;2023-04-24T12:45:13;6.07;;;3.70;;
6348;SDS011;3207;42.648;23.406;2023-04-24T12:47:41;9.50;;;3.95;;
6348;SDS011;3207;42.648;23.406;2023-04-24T12:50:08;5.57;;;3.90;;
6348;SDS011;3207;42.648;23.406;2023-04-24T12:52:37;7.10;;;3.92;;
6348;SDS011;3207;42.648;23.406;2023-04-24T12:55:04;6.07;;;3.90;;
6348;SDS011;3207;42.648;23.406;2023-04-24T12:57:35;5.60;;;3.55;;
6348;SDS011;3207;42.648;23.406;2023-04-24T13:00:03;3.20;;;2.90;;
6348;SDS011;3207;42.648;23.406;2023-04-24T13:02:31;6.10;;;2.42;;
6348;SDS011;3207;42.648;23.406;2023-04-24T13:04:59;2.72;;;2.50;;
6348;SDS011;3207;42.648;23.406;2023-04-24T13:07:27;4.03;;;3.25;;
6348;SDS011;3207;42.648;23.406;2023-04-24T13:09:54;4.72;;;2.47;;
6348;SDS011;3207;42.648;23.406;2023-04-24T13:12:22;6.53;;;3.63;;
6348;SDS011;3207;42.648;23.406;2023-04-24T13:14:51;4.80;;;3.38;;
6348;SDS011;3207;42.648;23.406;2023-04-24T13:17:19;4.63;;;2.60;;
6348;SDS011;3207;42.648;23.406;2023-04-24T13:19:45;5.43;;;4.88;;
6348;SDS011;3207;42.648;23.406;2023-04-24T13:22:12;6.63;;;4.88;;
6348;SDS011;3207;42.648;23.406;2023-04-24T13:24:39;5.80;;;3.38;;
6348;SDS011;3207;42.648;23.406;2023-04-24T13:27:07;5.28;;;3.53;;
6348;SDS011;3207;42.648;23.406;2023-04-24T13:29:34;4.03;;;3.63;;
6348;SDS011;3207;42.648;23.406;2023-04-24T13:32:03;7.10;;;4.57;;
6348;SDS011;3207;42.648;23.406;2023-04-24T13:34:30;5.93;;;4.28;;
6348;SDS011;3207;42.648;23.406;2023-04-24T13:36:57;4.28;;;3.85;;
6348;SDS011;3207;42.648;23.406;2023-04-24T13:39:24;4.57;;;4.22;;
6348;SDS011;3207;42.648;23.406;2023-04-24T13:41:51;5.75;;;4.43;;
6348;SDS011;3207;42.648;23.406;2023-04-24T13:44:19;5.50;;;4.72;;
6348;SDS011;3207;42.648;23.406;2023-04-24T13:46:47;9.20;;;5.30;;
6348;SDS011;3207;42.648;23.406;2023-04-24T13:49:18;6.10;;;5.38;;
6348;SDS011;3207;42.648;23.406;2023-04-24T13:51:45;6.60;;;5.75;;
6348;SDS011;3207;42.648;23.406;2023-04-24T13:54:12;7.55;;;6.18;;
6348;SDS011;3207;42.648;23.406;2023-04-24T13:56:39;8.48;;;5.93;;
6348;SDS011;3207;42.648;23.406;2023-04-24T13:59:06;8.25;;;6.03;;
6348;SDS011;3207;42.648;23.406;2023-04-24T14:01:33;9.50;;;6.43;;
6348;SDS011;3207;42.648;23.406;2023-04-24T14:04:00;7.80;;;5.65;;
6348;SDS011;3207;42.648;23.406;2023-04-24T14:06:28;8.20;;;6.65;;
6348;SDS011;3207;42.648;23.406;2023-04-24T14:08:56;7.10;;;6.20;;
6348;SDS011;3207;42.648;23.406;2023-04-24T14:11:23;11.65;;;6.47;;
6348;SDS011;3207;42.648;23.406;2023-04-24T14:13:50;7.07;;;5.28;;
6348;SDS011;3207;42.648;23.406;2023-04-24T14:16:17;7.38;;;4.95;;
6348;SDS011;3207;42.648;23.406;2023-04-24T14:18:43;6.28;;;4.65;;
6348;SDS011;3207;42.648;23.406;2023-04-24T14:21:10;4.97;;;4.35;;
6348;SDS011;3207;42.648;23.406;2023-04-24T14:23:38;5.72;;;4.00;;
6348;SDS011;3207;42.648;23.406;2023-04-24T14:26:05;4.20;;;3.40;;
6348;SDS011;3207;42.648;23.406;2023-04-24T14:28:32;7.25;;;5.82;;
6348;SDS011;3207;42.648;23.406;2023-04-24T14:30:59;4.20;;;3.13;;
6348;SDS011;3207;42.648;23.406;2023-04-24T14:33:26;3.00;;;2.70;;
6348;SDS011;3207;42.648;23.406;2023-04-24T14:35:53;4.10;;;3.42;;
6348;SDS011;3207;42.648;23.406;2023-04-24T14:38:19;3.78;;;3.13;;
6348;SDS011;3207;42.648;23.406;2023-04-24T14:40:48;4.70;;;3.53;;
6348;SDS011;3207;42.648;23.406;2023-04-24T14:43:15;4.78;;;4.18;;
6348;SDS011;3207;42.648;23.406;2023-04-24T14:45:41;5.28;;;4.78;;
6348;SDS011;3207;42.648;23.406;2023-04-24T14:48:08;6.35;;;5.22;;
6348;SDS011;3207;42.648;23.406;2023-04-24T14:50:36;7.13;;;5.40;;
6348;SDS011;3207;42.648;23.406;2023-04-24T14:53:03;7.78;;;5.07;;
6348;SDS011;3207;42.648;23.406;2023-04-24T14:55:30;7.85;;;5.78;;
6348;SDS011;3207;42.648;23.406;2023-04-24T14:57:59;5.57;;;4.72;;
6348;SDS011;3207;42.648;23.406;2023-04-24T15:00:26;7.88;;;5.22;;
6348;SDS011;3207;42.648;23.406;2023-04-24T15:02:53;5.45;;;4.95;;
6348;SDS011;3207;42.648;23.406;2023-04-24T15:05:20;6.28;;;4.93;;
6348;SDS011;3207;42.648;23.406;2023-04-24T15:07:47;9.30;;;4.97;;